sensor_id;sensor_type;location;lat;lon;timestamp;pressure;altitude;pressure_sealevel;temperature;humidity
21111;BME280;10713;51.912;4.494;2023-05-02T00:00:37;102119.66;;;11.79;100.00
21111;BME280;10713;51.912;4.494;2023-05-02T00:03:03;102108.16;;;11.79;100.00
21111;BME280;10713;51.912;4.494;2023-05-02T00:05:28;102114.22;;;11.84;100.00
21111;BME280;10713;51.912;4.494;2023-05-02T00:07:55;102117.88;;;11.80;100.00
21111;BME280;10713;51.912;4.494;2023-05-02T00:10:20;102111.88;;;11.71;100.00
21111;BME280;10713;51.912;4.494;2023-05-02T00:12:45;102114.53;;;11.71;100.00
21111;BME280;10713;51.912;4.494;2023-05-02T00:15:11;102113.84;;;11.63;100.00
21111;BME280;10713;51.912;4.494;2023-05-02T00:17:39;102118.34;;;11.60;100.00
21111;BME280;10713;51.912;4.494;2023-05-02T00:20:07;102120.22;;;11.55;100.00
21111;BME280;10713;51.912;4.494;2023-05-02T00:22:33;102122.00;;;11.54;100.00
21111;BME280;10713;51.912;4.494;2023-05-02T00:25:00;102113.13;;;11.55;100.00
21111;BME280;10713;51.912;4.494;2023-05-02T00:27:25;102107.91;;;11.54;100.00
21111;BME280;10713;51.912;4.494;2023-05-02T00:29:50;102113.22;;;11.52;100.00
21111;BME280;10713;51.912;4.494;2023-05-02T00:32:17;102117.41;;;11.62;100.00
21111;BME280;10713;51.912;4.494;2023-05-02T00:34:42;102118.75;;;11.79;100.00
21111;BME280;10713;51.912;4.494;2023-05-02T00:37:08;102122.22;;;11.82;100.00
21111;BME280;10713;51.912;4.494;2023-05-02T00:39:34;102120.38;;;11.84;100.00
21111;BME280;10713;51.912;4.494;2023-05-02T00:42:00;102116.75;;;11.90;100.00
21111;BME280;10713;51.912;4.494;2023-05-02T00:44:26;102119.31;;;11.93;100.00
21111;BME280;10713;51.912;4.494;2023-05-02T00:46:53;102118.50;;;11.91;100.00
21111;BME280;10713;51.912;4.494;2023-05-02T00:49:20;102121.94;;;11.94;100.00
21111;BME280;10713;51.912;4.494;2023-05-02T00:51:45;102109.66;;;11.92;100.00
21111;BME280;10713;51.912;4.494;2023-05-02T00:54:14;102122.66;;;12.01;100.00
21111;BME280;10713;51.912;4.494;2023-05-02T00:56:40;102114.78;;;11.98;100.00
21111;BME280;10713;51.912;4.494;2023-05-02T00:59:06;102112.31;;;11.92;100.00
21111;BME280;10713;51.912;4.494;2023-05-02T01:04:36;102110.44;;;11.95;100.00
21111;BME280;10713;51.912;4.494;2023-05-02T01:15:25;102129.47;;;12.11;100.00
21111;BME280;10713;51.912;4.494;2023-05-02T01:17:52;102127.75;;;12.09;100.00
21111;BME280;10713;51.912;4.494;2023-05-02T01:20:25;102125.28;;;12.01;100.00
21111;BME280;10713;51.912;4.494;2023-05-02T01:22:53;102140.38;;;11.99;100.00
21111;BME280;10713;51.912;4.494;2023-05-02T01:25:43;102134.31;;;11.94;100.00
21111;BME280;10713;51.912;4.494;2023-05-02T01:28:30;102144.09;;;11.90;100.00
21111;BME280;10713;51.912;4.494;2023-05-02T01:31:02;102142.28;;;11.92;100.00
21111;BME280;10713;51.912;4.494;2023-05-02T01:33:29;102147.47;;;11.97;100.00
21111;BME280;10713;51.912;4.494;2023-05-02T01:35:56;102154.72;;;11.89;100.00
21111;BME280;10713;51.912;4.494;2023-05-02T01:38:23;102163.00;;;11.72;100.00
21111;BME280;10713;51.912;4.494;2023-05-02T01:40:50;102158.81;;;11.63;100.00
21111;BME280;10713;51.912;4.494;2023-05-02T01:43:17;102169.59;;;11.53;100.00
21111;BME280;10713;51.912;4.494;2023-05-02T01:45:46;102169.53;;;11.56;100.00
21111;BME280;10713;51.912;4.494;2023-05-02T01:48:13;102158.81;;;11.63;100.00
21111;BME280;10713;51.912;4.494;2023-05-02T01:50:40;102174.44;;;11.74;100.00
21111;BME280;10713;51.912;4.494;2023-05-02T01:53:08;102181.31;;;11.81;100.00
21111;BME280;10713;51.912;4.494;2023-05-02T01:55:40;102183.06;;;11.82;100.00
21111;BME280;10713;51.912;4.494;2023-05-02T01:58:08;102185.09;;;11.71;100.00
21111;BME280;10713;51.912;4.494;2023-05-02T02:00:35;102187.75;;;11.69;100.00
21111;BME280;10713;51.912;4.494;2023-05-02T02:03:06;102188.69;;;11.67;100.00
21111;BME280;10713;51.912;4.494;2023-05-02T02:05:34;102187.81;;;11.68;100.00
21111;BME280;10713;51.912;4.494;2023-05-02T02:08:01;102192.19;;;11.67;100.00
21111;BME280;10713;51.912;4.494;2023-05-02T02:10:28;102197.31;;;11.75;100.00
21111;BME280;10713;51.912;4.494;2023-05-02T02:13:05;102202.63;;;11.75;100.00
21111;BME280;10713;51.912;4.494;2023-05-02T02:15:34;102199.47;;;11.58;100.00
21111;BME280;10713;51.912;4.494;2023-05-02T02:20:28;102197.59;;;11.63;100.00
21111;BME280;10713;51.912;4.494;2023-05-02T02:22:55;102214.25;;;11.68;100.00
21111;BME280;10713;51.912;4.494;2023-05-02T02:25:22;102217.03;;;11.62;100.00
21111;BME280;10713;51.912;4.494;2023-05-02T02:27:49;102210.13;;;11.53;100.00
21111;BME280;10713;51.912;4.494;2023-05-02T02:30:14;102212.91;;;11.47;100.00
21111;BME280;10713;51.912;4.494;2023-05-02T02:32:40;102217.47;;;11.42;100.00
21111;BME280;10713;51.912;4.494;2023-05-02T02:35:06;102215.41;;;11.55;100.00
21111;BME280;10713;51.912;4.494;2023-05-02T02:37:36;102214.53;;;11.54;100.00
21111;BME280;10713;51.912;4.494;2023-05-02T02:43:10;102223.16;;;11.64;100.00
21111;BME280;10713;51.912;4.494;2023-05-02T02:48:19;102226.84;;;11.57;100.00
21111;BME280;10713;51.912;4.494;2023-05-02T02:53:32;102227.13;;;11.43;100.00
21111;BME280;10713;51.912;4.494;2023-05-02T02:56:05;102224.69;;;11.32;100.00
21111;BME280;10713;51.912;4.494;2023-05-02T02:58:49;102222.03;;;11.34;100.00
21111;BME280;10713;51.912;4.494;2023-05-02T03:01:19;102230.75;;;11.37;100.00
21111;BME280;10713;51.912;4.494;2023-05-02T03:03:45;102238.69;;;11.37;100.00
21111;BME280;10713;51.912;4.494;2023-05-02T03:06:12;102215.81;;;11.36;100.00
21111;BME280;10713;51.912;4.494;2023-05-02T03:08:41;102230.91;;;11.30;100.00
21111;BME280;10713;51.912;4.494;2023-05-02T03:11:07;102224.91;;;11.21;100.00
21111;BME280;10713;51.912;4.494;2023-05-02T03:13:33;102238.06;;;11.24;100.00
21111;BME280;10713;51.912;4.494;2023-05-02T03:18:42;102246.88;;;11.25;100.00
21111;BME280;10713;51.912;4.494;2023-05-02T03:21:08;102260.91;;;11.27;100.00
21111;BME280;10713;51.912;4.494;2023-05-02T03:23:34;102253.03;;;11.25;100.00
21111;BME280;10713;51.912;4.494;2023-05-02T03:26:00;102259.25;;;11.21;100.00
21111;BME280;10713;51.912;4.494;2023-05-02T03:28:27;102258.44;;;11.19;100.00
21111;BME280;10713;51.912;4.494;2023-05-02T03:30:52;102265.34;;;11.26;100.00
21111;BME280;10713;51.912;4.494;2023-05-02T03:33:17;102268.75;;;11.33;100.00
21111;BME280;10713;51.912;4.494;2023-05-02T03:35:43;102266.94;;;11.35;100.00
21111;BME280;10713;51.912;4.494;2023-05-02T03:38:08;102266.94;;;11.35;100.00
21111;BME280;10713;51.912;4.494;2023-05-02T03:40:34;102276.72;;;11.30;100.00
21111;BME280;10713;51.912;4.494;2023-05-02T03:42:59;102272.28;;;11.32;100.00
21111;BME280;10713;51.912;4.494;2023-05-02T03:45:24;102269.56;;;11.35;100.00
21111;BME280;10713;51.912;4.494;2023-05-02T03:47:50;102272.97;;;11.42;100.00
21111;BME280;10713;51.912;4.494;2023-05-02T03:50:15;102280.03;;;11.41;100.00
21111;BME280;10713;51.912;4.494;2023-05-02T03:52:41;102278.41;;;11.34;100.00
21111;BME280;10713;51.912;4.494;2023-05-02T03:55:06;102292.47;;;11.36;100.00
21111;BME280;10713;51.912;4.494;2023-05-02T03:57:32;102281.88;;;11.38;100.00
21111;BME280;10713;51.912;4.494;2023-05-02T03:59:57;102282.84;;;11.32;100.00
21111;BME280;10713;51.912;4.494;2023-05-02T04:02:23;102289.94;;;11.30;100.00
21111;BME280;10713;51.912;4.494;2023-05-02T04:04:49;102303.31;;;11.22;100.00
21111;BME280;10713;51.912;4.494;2023-05-02T04:07:14;102298.97;;;11.18;100.00
21111;BME280;10713;51.912;4.494;2023-05-02T04:09:43;102299.09;;;11.12;100.00
21111;BME280;10713;51.912;4.494;2023-05-02T04:12:09;102303.31;;;11.21;100.00
21111;BME280;10713;51.912;4.494;2023-05-02T04:14:34;102306.84;;;11.21;100.00
21111;BME280;10713;51.912;4.494;2023-05-02T04:17:00;102306.16;;;11.10;100.00
21111;BME280;10713;51.912;4.494;2023-05-02T04:19:25;102311.38;;;11.16;100.00
21111;BME280;10713;51.912;4.494;2023-05-02T04:21:51;102301.78;;;11.09;100.00
21111;BME280;10713;51.912;4.494;2023-05-02T04:24:17;102305.28;;;11.11;100.00
21111;BME280;10713;51.912;4.494;2023-05-02T04:26:42;102315.09;;;11.04;100.00
21111;BME280;10713;51.912;4.494;2023-05-02T04:29:07;102310.00;;;10.94;100.00
21111;BME280;10713;51.912;4.494;2023-05-02T04:31:33;102318.84;;;10.91;100.00
21111;BME280;10713;51.912;4.494;2023-05-02T04:33:59;102319.75;;;10.89;100.00
21111;BME280;10713;51.912;4.494;2023-05-02T04:36:24;102321.50;;;10.91;100.00
21111;BME280;10713;51.912;4.494;2023-05-02T04:38:52;102335.44;;;10.99;100.00
21111;BME280;10713;51.912;4.494;2023-05-02T04:41:17;102338.97;;;10.98;100.00
21111;BME280;10713;51.912;4.494;2023-05-02T04:43:43;102338.97;;;10.98;100.00
21111;BME280;10713;51.912;4.494;2023-05-02T04:46:08;102343.47;;;10.93;100.00
21111;BME280;10713;51.912;4.494;2023-05-02T04:48:34;102343.47;;;10.93;100.00
21111;BME280;10713;51.912;4.494;2023-05-02T04:50:59;102343.38;;;10.98;100.00
21111;BME280;10713;51.912;4.494;2023-05-02T04:53:24;102351.25;;;11.02;100.00
21111;BME280;10713;51.912;4.494;2023-05-02T04:55:50;102359.06;;;11.07;100.00
21111;BME280;10713;51.912;4.494;2023-05-02T04:58:16;102360.78;;;11.10;100.00
21111;BME280;10713;51.912;4.494;2023-05-02T05:00:41;102360.84;;;11.08;100.00
21111;BME280;10713;51.912;4.494;2023-05-02T05:03:07;102354.59;;;11.12;100.00
21111;BME280;10713;51.912;4.494;2023-05-02T05:05:32;102360.63;;;11.20;100.00
21111;BME280;10713;51.912;4.494;2023-05-02T05:07:58;102365.88;;;11.22;100.00
21111;BME280;10713;51.912;4.494;2023-05-02T05:10:23;102367.50;;;11.31;100.00
21111;BME280;10713;51.912;4.494;2023-05-02T05:12:48;102366.75;;;11.22;100.00
21111;BME280;10713;51.912;4.494;2023-05-02T05:15:14;102375.47;;;11.27;100.00
21111;BME280;10713;51.912;4.494;2023-05-02T05:17:40;102379.56;;;11.44;100.00
21111;BME280;10713;51.912;4.494;2023-05-02T05:20:08;102374.28;;;11.45;100.00
21111;BME280;10713;51.912;4.494;2023-05-02T05:22:40;102379.50;;;11.48;100.00
21111;BME280;10713;51.912;4.494;2023-05-02T05:25:07;102374.22;;;11.48;100.00
21111;BME280;10713;51.912;4.494;2023-05-02T05:27:33;102381.97;;;11.58;100.00
21111;BME280;10713;51.912;4.494;2023-05-02T05:29:59;102380.19;;;11.58;100.00
21111;BME280;10713;51.912;4.494;2023-05-02T05:32:25;102381.03;;;11.60;100.00
21111;BME280;10713;51.912;4.494;2023-05-02T05:34:51;102390.59;;;11.67;100.00
21111;BME280;10713;51.912;4.494;2023-05-02T05:37:17;102392.28;;;11.71;100.00
21111;BME280;10713;51.912;4.494;2023-05-02T05:39:42;102401.09;;;11.72;100.00
21111;BME280;10713;51.912;4.494;2023-05-02T05:42:08;102398.38;;;11.77;100.00
21111;BME280;10713;51.912;4.494;2023-05-02T05:44:34;102403.03;;;11.62;100.00
21111;BME280;10713;51.912;4.494;2023-05-02T05:47:00;102411.09;;;11.56;100.00
21111;BME280;10713;51.912;4.494;2023-05-02T05:49:25;102413.75;;;11.56;100.00
21111;BME280;10713;51.912;4.494;2023-05-02T05:51:51;102415.66;;;11.48;100.00
21111;BME280;10713;51.912;4.494;2023-05-02T05:54:16;102420.53;;;11.20;100.00
21111;BME280;10713;51.912;4.494;2023-05-02T05:56:42;102420.25;;;10.81;100.00
21111;BME280;10713;51.912;4.494;2023-05-02T05:59:08;102423.00;;;10.76;100.00
21111;BME280;10713;51.912;4.494;2023-05-02T06:01:33;102424.72;;;10.77;100.00
21111;BME280;10713;51.912;4.494;2023-05-02T06:04:00;102435.44;;;10.67;100.00
21111;BME280;10713;51.912;4.494;2023-05-02T06:06:25;102445.03;;;10.74;100.00
21111;BME280;10713;51.912;4.494;2023-05-02T06:08:51;102449.38;;;10.79;100.00
21111;BME280;10713;51.912;4.494;2023-05-02T06:11:16;102445.63;;;10.94;100.00
21111;BME280;10713;51.912;4.494;2023-05-02T06:13:42;102450.91;;;10.93;100.00
21111;BME280;10713;51.912;4.494;2023-05-02T06:16:07;102450.91;;;10.94;100.00
21111;BME280;10713;51.912;4.494;2023-05-02T06:18:32;102469.16;;;11.10;100.00
21111;BME280;10713;51.912;4.494;2023-05-02T06:21:03;102458.25;;;11.30;100.00
21111;BME280;10713;51.912;4.494;2023-05-02T06:23:29;102462.22;;;11.57;100.00
21111;BME280;10713;51.912;4.494;2023-05-02T06:25:58;102460.13;;;11.74;100.00
21111;BME280;10713;51.912;4.494;2023-05-02T06:28:23;102460.69;;;11.93;100.00
21111;BME280;10713;51.912;4.494;2023-05-02T06:31:03;102459.22;;;12.22;100.00
21111;BME280;10713;51.912;4.494;2023-05-02T06:33:30;102460.66;;;12.80;100.00
21111;BME280;10713;51.912;4.494;2023-05-02T06:35:57;102460.38;;;13.29;100.00
21111;BME280;10713;51.912;4.494;2023-05-02T06:38:23;102465.09;;;13.17;100.00
21111;BME280;10713;51.912;4.494;2023-05-02T06:40:49;102470.59;;;13.07;100.00
21111;BME280;10713;51.912;4.494;2023-05-02T06:43:15;102476.81;;;13.06;100.00
21111;BME280;10713;51.912;4.494;2023-05-02T06:45:40;102469.16;;;12.94;100.00
21111;BME280;10713;51.912;4.494;2023-05-02T06:48:06;102493.03;;;12.93;100.00
21111;BME280;10713;51.912;4.494;2023-05-02T06:50:32;102474.56;;;13.27;100.00
21111;BME280;10713;51.912;4.494;2023-05-02T06:52:58;102484.41;;;13.92;100.00
21111;BME280;10713;51.912;4.494;2023-05-02T06:55:23;102477.66;;;13.80;100.00
21111;BME280;10713;51.912;4.494;2023-05-02T06:57:49;102487.59;;;13.36;100.00
21111;BME280;10713;51.912;4.494;2023-05-02T07:00:16;102486.28;;;12.79;100.00
21111;BME280;10713;51.912;4.494;2023-05-02T07:02:41;102497.38;;;12.56;100.00
21111;BME280;10713;51.912;4.494;2023-05-02T07:05:07;102497.97;;;12.27;100.00
21111;BME280;10713;51.912;4.494;2023-05-02T07:07:33;102512.69;;;12.42;100.00
21111;BME280;10713;51.912;4.494;2023-05-02T07:09:58;102513.28;;;12.55;100.00
21111;BME280;10713;51.912;4.494;2023-05-02T07:12:25;102510.78;;;12.47;100.00
21111;BME280;10713;51.912;4.494;2023-05-02T07:14:50;102504.78;;;12.81;100.00
21111;BME280;10713;51.912;4.494;2023-05-02T07:17:16;102498.56;;;13.21;100.00
21111;BME280;10713;51.912;4.494;2023-05-02T07:19:41;102499.56;;;13.54;100.00
21111;BME280;10713;51.912;4.494;2023-05-02T07:22:07;102498.13;;;13.75;100.00
21111;BME280;10713;51.912;4.494;2023-05-02T07:24:32;102503.84;;;13.92;100.00
21111;BME280;10713;51.912;4.494;2023-05-02T07:26:57;102498.00;;;14.75;100.00
21111;BME280;10713;51.912;4.494;2023-05-02T07:29:23;102489.94;;;15.59;100.00
21111;BME280;10713;51.912;4.494;2023-05-02T07:31:49;102496.47;;;16.74;100.00
21111;BME280;10713;51.912;4.494;2023-05-02T07:34:14;102493.47;;;17.70;100.00
21111;BME280;10713;51.912;4.494;2023-05-02T07:36:40;102500.59;;;19.43;100.00
21111;BME280;10713;51.912;4.494;2023-05-02T07:39:05;102494.94;;;20.18;92.35
21111;BME280;10713;51.912;4.494;2023-05-02T07:41:31;102490.38;;;21.01;81.91
21111;BME280;10713;51.912;4.494;2023-05-02T07:43:56;102502.09;;;20.51;72.06
21111;BME280;10713;51.912;4.494;2023-05-02T07:46:22;102499.22;;;21.03;74.26
21111;BME280;10713;51.912;4.494;2023-05-02T07:48:48;102503.63;;;20.39;66.97
21111;BME280;10713;51.912;4.494;2023-05-02T07:51:13;102502.16;;;18.74;67.61
21111;BME280;10713;51.912;4.494;2023-05-02T07:53:39;102514.31;;;17.82;73.80
21111;BME280;10713;51.912;4.494;2023-05-02T07:56:05;102527.53;;;17.21;79.27
21111;BME280;10713;51.912;4.494;2023-05-02T07:58:33;102530.56;;;16.89;83.75
21111;BME280;10713;51.912;4.494;2023-05-02T08:00:58;102525.63;;;16.55;84.78
21111;BME280;10713;51.912;4.494;2023-05-02T08:03:24;102533.78;;;16.74;91.03
21111;BME280;10713;51.912;4.494;2023-05-02T08:05:50;102530.91;;;16.80;88.99
21111;BME280;10713;51.912;4.494;2023-05-02T08:08:15;102534.81;;;17.60;88.73
21111;BME280;10713;51.912;4.494;2023-05-02T08:10:41;102547.88;;;17.67;81.12
21111;BME280;10713;51.912;4.494;2023-05-02T08:13:06;102539.97;;;17.64;79.40
21111;BME280;10713;51.912;4.494;2023-05-02T08:15:31;102543.06;;;16.87;74.24
21111;BME280;10713;51.912;4.494;2023-05-02T08:17:57;102547.75;;;16.09;69.50
21111;BME280;10713;51.912;4.494;2023-05-02T08:20:22;102544.25;;;16.07;77.36
21111;BME280;10713;51.912;4.494;2023-05-02T08:22:47;102549.94;;;16.23;77.02
21111;BME280;10713;51.912;4.494;2023-05-02T08:25:13;102550.44;;;16.07;74.97
21111;BME280;10713;51.912;4.494;2023-05-02T08:27:38;102551.28;;;15.56;72.90
21111;BME280;10713;51.912;4.494;2023-05-02T08:30:04;102557.41;;;15.31;79.73
21111;BME280;10713;51.912;4.494;2023-05-02T08:32:31;102561.59;;;15.39;80.96
21111;BME280;10713;51.912;4.494;2023-05-02T08:34:56;102553.38;;;16.25;80.39
21111;BME280;10713;51.912;4.494;2023-05-02T08:37:22;102565.84;;;17.20;69.52
21111;BME280;10713;51.912;4.494;2023-05-02T08:39:47;102571.03;;;17.67;64.76
21111;BME280;10713;51.912;4.494;2023-05-02T08:42:12;102564.22;;;17.16;59.36
21111;BME280;10713;51.912;4.494;2023-05-02T08:44:38;102566.97;;;16.42;59.69
21111;BME280;10713;51.912;4.494;2023-05-02T08:47:04;102569.47;;;16.21;65.44
21111;BME280;10713;51.912;4.494;2023-05-02T08:49:31;102578.38;;;15.95;66.84
21111;BME280;10713;51.912;4.494;2023-05-02T08:51:58;102585.25;;;15.48;64.73
21111;BME280;10713;51.912;4.494;2023-05-02T08:54:24;102578.19;;;15.47;69.00
21111;BME280;10713;51.912;4.494;2023-05-02T08:56:52;102587.63;;;16.10;66.47
21111;BME280;10713;51.912;4.494;2023-05-02T08:59:18;102585.03;;;17.29;59.95
21111;BME280;10713;51.912;4.494;2023-05-02T09:01:51;102584.19;;;18.55;57.95
21111;BME280;10713;51.912;4.494;2023-05-02T09:04:22;102588.72;;;19.11;48.44
21111;BME280;10713;51.912;4.494;2023-05-02T09:06:48;102585.78;;;19.53;52.37
21111;BME280;10713;51.912;4.494;2023-05-02T09:09:13;102590.81;;;20.13;51.35
21111;BME280;10713;51.912;4.494;2023-05-02T09:11:39;102581.56;;;20.36;49.01
21111;BME280;10713;51.912;4.494;2023-05-02T09:14:13;102587.81;;;21.19;46.67
21111;BME280;10713;51.912;4.494;2023-05-02T09:16:39;102582.69;;;22.22;48.01
21111;BME280;10713;51.912;4.494;2023-05-02T09:19:05;102588.50;;;23.44;45.24
21111;BME280;10713;51.912;4.494;2023-05-02T09:21:35;102587.75;;;23.54;39.00
21111;BME280;10713;51.912;4.494;2023-05-02T09:24:01;102582.22;;;23.43;43.73
21111;BME280;10713;51.912;4.494;2023-05-02T09:26:38;102588.47;;;22.74;42.21
21111;BME280;10713;51.912;4.494;2023-05-02T09:29:04;102597.63;;;23.00;42.62
21111;BME280;10713;51.912;4.494;2023-05-02T09:31:31;102596.44;;;23.45;40.77
21111;BME280;10713;51.912;4.494;2023-05-02T09:34:11;102601.94;;;23.02;37.56
21111;BME280;10713;51.912;4.494;2023-05-02T09:39:12;102603.78;;;22.73;38.88
21111;BME280;10713;51.912;4.494;2023-05-02T09:44:09;102620.22;;;21.32;40.91
21111;BME280;10713;51.912;4.494;2023-05-02T09:46:44;102613.09;;;22.53;39.71
21111;BME280;10713;51.912;4.494;2023-05-02T09:49:09;102617.88;;;22.91;40.22
21111;BME280;10713;51.912;4.494;2023-05-02T09:51:35;102614.72;;;22.84;39.48
21111;BME280;10713;51.912;4.494;2023-05-02T09:54:01;102619.59;;;22.04;39.81
21111;BME280;10713;51.912;4.494;2023-05-02T09:56:26;102624.00;;;20.96;39.76
21111;BME280;10713;51.912;4.494;2023-05-02T09:59:10;102627.09;;;20.38;38.53
21111;BME280;10713;51.912;4.494;2023-05-02T10:01:36;102618.25;;;20.53;41.26
21111;BME280;10713;51.912;4.494;2023-05-02T10:04:03;102620.63;;;21.08;41.03
21111;BME280;10713;51.912;4.494;2023-05-02T10:06:29;102621.53;;;21.56;40.47
21111;BME280;10713;51.912;4.494;2023-05-02T10:08:55;102621.31;;;22.21;39.88
21111;BME280;10713;51.912;4.494;2023-05-02T10:11:21;102619.53;;;22.65;39.61
21111;BME280;10713;51.912;4.494;2023-05-02T10:13:47;102620.19;;;22.68;39.25
21111;BME280;10713;51.912;4.494;2023-05-02T10:16:21;102615.88;;;22.94;39.50
21111;BME280;10713;51.912;4.494;2023-05-02T10:21:24;102617.63;;;24.18;39.31
21111;BME280;10713;51.912;4.494;2023-05-02T10:23:51;102615.94;;;24.43;37.26
21111;BME280;10713;51.912;4.494;2023-05-02T10:26:17;102619.28;;;23.81;37.56
21111;BME280;10713;51.912;4.494;2023-05-02T10:28:45;102628.78;;;23.04;36.66
21111;BME280;10713;51.912;4.494;2023-05-02T10:31:12;102623.59;;;22.72;37.39
21111;BME280;10713;51.912;4.494;2023-05-02T10:33:39;102619.59;;;22.49;37.74
21111;BME280;10713;51.912;4.494;2023-05-02T10:36:08;102616.44;;;22.57;37.72
21111;BME280;10713;51.912;4.494;2023-05-02T10:38:42;102628.44;;;22.37;37.84
21111;BME280;10713;51.912;4.494;2023-05-02T10:41:12;102630.09;;;22.09;36.84
21111;BME280;10713;51.912;4.494;2023-05-02T10:43:40;102627.81;;;21.71;37.15
21111;BME280;10713;51.912;4.494;2023-05-02T10:51:30;102639.34;;;19.72;37.36
21111;BME280;10713;51.912;4.494;2023-05-02T10:54:22;102638.72;;;18.51;37.85
21111;BME280;10713;51.912;4.494;2023-05-02T10:59:36;102638.22;;;17.56;39.66
21111;BME280;10713;51.912;4.494;2023-05-02T11:02:02;102639.34;;;17.72;39.92
21111;BME280;10713;51.912;4.494;2023-05-02T11:05:01;102655.81;;;17.62;38.81
21111;BME280;10713;51.912;4.494;2023-05-02T11:07:27;102634.41;;;17.85;40.73
21111;BME280;10713;51.912;4.494;2023-05-02T11:12:56;102624.94;;;19.75;42.24
21111;BME280;10713;51.912;4.494;2023-05-02T11:18:05;102636.09;;;21.36;40.80
21111;BME280;10713;51.912;4.494;2023-05-02T11:20:32;102633.44;;;21.19;39.54
21111;BME280;10713;51.912;4.494;2023-05-02T11:25:46;102639.16;;;19.01;40.04
21111;BME280;10713;51.912;4.494;2023-05-02T11:34:07;102645.75;;;18.12;40.13
21111;BME280;10713;51.912;4.494;2023-05-02T11:36:34;102649.16;;;17.50;40.88
21111;BME280;10713;51.912;4.494;2023-05-02T11:39:00;102656.25;;;17.27;42.97
21111;BME280;10713;51.912;4.494;2023-05-02T11:41:38;102658.06;;;17.72;42.82
21111;BME280;10713;51.912;4.494;2023-05-02T11:44:04;102657.66;;;17.60;42.96
21111;BME280;10713;51.912;4.494;2023-05-02T11:46:30;102654.66;;;17.69;43.51
21111;BME280;10713;51.912;4.494;2023-05-02T11:48:55;102654.75;;;18.10;43.94
21111;BME280;10713;51.912;4.494;2023-05-02T11:51:24;102663.19;;;18.82;43.35
21111;BME280;10713;51.912;4.494;2023-05-02T11:53:51;102672.44;;;19.33;42.71
21111;BME280;10713;51.912;4.494;2023-05-02T11:56:22;102664.00;;;19.60;43.27
21111;BME280;10713;51.912;4.494;2023-05-02T11:58:57;102663.53;;;19.33;43.79
21111;BME280;10713;51.912;4.494;2023-05-02T12:01:24;102669.78;;;18.75;42.91
21111;BME280;10713;51.912;4.494;2023-05-02T12:03:49;102662.06;;;18.27;43.73
21111;BME280;10713;51.912;4.494;2023-05-02T12:06:17;102669.28;;;18.02;44.74
21111;BME280;10713;51.912;4.494;2023-05-02T12:08:45;102673.22;;;18.16;44.07
21111;BME280;10713;51.912;4.494;2023-05-02T12:11:14;102677.25;;;18.04;44.53
21111;BME280;10713;51.912;4.494;2023-05-02T12:13:47;102679.38;;;18.38;44.51
21111;BME280;10713;51.912;4.494;2023-05-02T12:16:14;102682.72;;;18.43;43.35
21111;BME280;10713;51.912;4.494;2023-05-02T12:18:39;102676.25;;;18.29;43.94
21111;BME280;10713;51.912;4.494;2023-05-02T12:21:05;102675.34;;;18.28;43.74
21111;BME280;10713;51.912;4.494;2023-05-02T12:23:31;102673.97;;;18.40;44.70
21111;BME280;10713;51.912;4.494;2023-05-02T12:25:57;102675.63;;;18.42;44.34
21111;BME280;10713;51.912;4.494;2023-05-02T12:28:22;102688.63;;;18.52;44.22
21111;BME280;10713;51.912;4.494;2023-05-02T12:30:49;102689.47;;;18.73;44.15
21111;BME280;10713;51.912;4.494;2023-05-02T12:33:16;102689.38;;;18.76;44.42
21111;BME280;10713;51.912;4.494;2023-05-02T12:35:42;102684.41;;;18.87;44.15
21111;BME280;10713;51.912;4.494;2023-05-02T12:38:11;102686.84;;;19.12;44.19
21111;BME280;10713;51.912;4.494;2023-05-02T12:40:37;102689.00;;;19.23;44.43
21111;BME280;10713;51.912;4.494;2023-05-02T12:43:04;102690.53;;;19.28;44.23
21111;BME280;10713;51.912;4.494;2023-05-02T12:45:32;102683.97;;;18.96;43.55
21111;BME280;10713;51.912;4.494;2023-05-02T12:48:00;102696.25;;;18.61;43.41
21111;BME280;10713;51.912;4.494;2023-05-02T12:50:36;102703.59;;;18.13;42.86
21111;BME280;10713;51.912;4.494;2023-05-02T12:53:01;102712.19;;;17.30;43.88
21111;BME280;10713;51.912;4.494;2023-05-02T12:55:28;102705.59;;;17.17;45.40
21111;BME280;10713;51.912;4.494;2023-05-02T12:58:04;102702.19;;;17.37;45.11
21111;BME280;10713;51.912;4.494;2023-05-02T13:00:31;102715.97;;;17.48;45.67
21111;BME280;10713;51.912;4.494;2023-05-02T13:02:56;102723.31;;;17.65;45.84
21111;BME280;10713;51.912;4.494;2023-05-02T13:05:22;102721.94;;;17.78;45.74
21111;BME280;10713;51.912;4.494;2023-05-02T13:07:48;102726.06;;;17.64;45.50
21111;BME280;10713;51.912;4.494;2023-05-02T13:10:13;102732.88;;;17.49;45.75
21111;BME280;10713;51.912;4.494;2023-05-02T13:12:39;102719.13;;;17.11;45.24
21111;BME280;10713;51.912;4.494;2023-05-02T13:15:06;102718.50;;;16.79;46.42
21111;BME280;10713;51.912;4.494;2023-05-02T13:17:33;102727.69;;;16.71;47.54
21111;BME280;10713;51.912;4.494;2023-05-02T13:19:58;102726.38;;;16.84;48.03
21111;BME280;10713;51.912;4.494;2023-05-02T13:22:24;102719.75;;;16.69;48.33
21111;BME280;10713;51.912;4.494;2023-05-02T13:24:51;102720.56;;;16.46;48.08
21111;BME280;10713;51.912;4.494;2023-05-02T13:27:16;102722.63;;;16.10;48.05
21111;BME280;10713;51.912;4.494;2023-05-02T13:29:45;102727.97;;;16.36;49.89
21111;BME280;10713;51.912;4.494;2023-05-02T13:32:11;102735.03;;;16.64;49.47
21111;BME280;10713;51.912;4.494;2023-05-02T13:34:36;102740.38;;;16.37;47.86
21111;BME280;10713;51.912;4.494;2023-05-02T13:37:02;102744.13;;;16.32;49.36
21111;BME280;10713;51.912;4.494;2023-05-02T13:39:27;102737.94;;;16.31;48.39